XS20 weather

Dos Arroyos Ranch Airport
Mountain Home, Texas, United States

Public forecast

Using degrees Fahrenheit for public forecast. Weather courtesy of forecast.io.

Closest aviation weather report (METAR) to Dos Arroyos Ranch Airport

Closest report is Kerrville Municipal Louis Schreiner Field, 15.3 nm (28.4 km) SE. Retrieved 2019/10/15 18:35 UTC (0 seconds ago):

KERV 151835Z AUTO 19005KT 10SM SCT040 30/20 A2995 RMK AO2 T03030201

Closest aviation forecast (TAF) to Dos Arroyos Ranch Airport

Closest forecast is Kimble County Airport, 32.3 nm (59.8 km) NW. Retrieved 2019/10/15 18:51 UTC (0 seconds ago):

TAF KJCT 151748Z 1518/1618 VRB05KT P6SM VCSH BKN090 OVC110 TEMPO 1518/1521 6SM -RA BKN080 FM152100 26006KT P6SM BKN250 FM160300 36010G17KT P6SM BKN250